Bethlehem, NH (03574)

8:19 AM EST on February 12, 2016 (GMT -0500)
Overbrook Farm | | Change Station
CLOSE
Current Station
Personal Weather Station
Location: Bethlehem, NH
Elevation: 1243 ft
Nearby Weather Stations
Active Advisory: Wind Chill Watch

Elev 1243 ft 44.28 °N, 71.71 °W | Updated 9 minutes ago

Clear
Clear
-6.3 °F
Feels Like -6 °F
N
0.0
Wind Variable Wind from SE
Gusts 0.0 mph

Today
High -- | Low -- °F
--% Chance of Precip.
Yesterday
High -- | Low -- °F
Precip. -- in
Pressure 30.14 in
Visibility 10.0 miles
Clouds Clear
Windchill -6 °F
Dew Point -16 °F
Humidity 62%
Rainfall 0.00 in
Snow Depth Not available.
6:51 AM 5:11 PM
Waxing Crescent, 20% visible
METAR KHIE 121252Z AUTO 00000KT 10SM CLR M21/M25 A3005 RMK AO2 SLP206 T12061250
Pressure 30.14 in
Visibility 10.0 miles
Clouds Clear
Windchill -6 °F
Dew Point -16 °F
Humidity 62%
Rainfall 0.00 in
Snow Depth Not available.
6:51 AM 5:11 PM
Waxing Crescent, 20% visible
METAR KHIE 121252Z AUTO 00000KT 10SM CLR M21/M25 A3005 RMK AO2 SLP206 T12061250

10-Day Weather Forecast

Almanac

Astronomy

Feb. 12, 2016 Rise Set
Actual Time
Civil Twilight
Nautical Twilight
Astronomical Twilight
Moon
Length of Visible Light
Length of Day
Tomorrow will be .
, % of the Moon is Illuminated

Today's Extremes

State Highs State Lows

Community

WunderPhotos

Upload Photos

1,892,309 photos uploaded!

WunderBlog® & News

Nearby

Air Quality

  Air Quality AQ Index Pollutant
Not available.

Snow Depth

Station Depth Elevation

Earthquake Activity

City Distance Mag. Time & Date
Minimum magnitude displayed is 2.5.

Coastal Water Temperatures

Place Temperature

Stations

Nearby Weather Stations

Station Location Temp. Windchill Dew Point Humidity Wind Precip. Elev Updated Type
                   

Watches & Warnings

Wind Chill Watch
Issued: 3:52 AM EST Feb. 12, 2016 – National Weather Service

... Wind chill watch remains in effect from Saturday evening
through Sunday morning...

* hazard types... dangerous wind chill readings.

* Wind chill... as low as 36 below due to temperatures 21 below to
zero... and winds northwest 10 to 20 mph with gusts up to 30 mph.

* Timing... Saturday night and Sunday morning.

* Impacts... frostbite and hypothermia if unprotected from the
cold.

* Winds... northwest 10 to 20 mph with gusts up to 30 mph.

* Temperatures... 21 below to zero.

Precautionary/preparedness actions...

A wind chill watch means the there is the potential for a
combination of very cold air and strong winds to create
dangerously low wind chill values. Monitor the latest forecasts
and warnings for updates on this situation.